Time;durP1;ratioP1;P1;durP2;ratioP2;P2;SDS_P1;SDS_P2;PMS_P1;PMS_P2;Temp;Humidity;BMP_temperature;BMP_pressure;BME280_temperature;BME280_humidity;BME280_pressure;Samples;Min_cycle;Max_cycle;Signal;HPM_P1;HPM_P2
2022/12/10 00:01:50;;;;;;;;;;;4.90;68.10;;;-0.31;100.00;94159.78;4951011;29;19910;-49
2022/12/10 00:04:18;;;;;;;;;;;4.90;68.20;;;-0.31;100.00;94156.38;4950336;29;19937;-48
2022/12/10 00:06:44;;;;;;;;;;;4.80;68.20;;;-0.27;100.00;94160.91;4950750;29;20009;-48
2022/12/10 00:09:20;;;;;;;;;;;4.90;68.30;;;-0.23;100.00;94161.22;4950393;28;19921;-48
2022/12/10 00:11:56;;;;;;;;;;;4.90;68.40;;;-0.19;100.00;94153.69;4951903;28;19910;-49
2022/12/10 00:14:22;;;;;;;;;;;4.90;68.40;;;-0.23;100.00;94148.13;4951734;28;19917;-49
2022/12/10 00:16:51;;;;;;;;;;;4.90;68.40;;;-0.24;100.00;94149.97;4949927;29;19910;-49
2022/12/10 00:19:19;;;;;;;;;;;4.90;68.30;;;-0.24;100.00;94139.50;4951733;29;19972;-49
2022/12/10 00:21:45;;;;;;;;;;;4.90;68.30;;;-0.24;100.00;94133.47;4951146;28;19910;-50
2022/12/10 00:24:12;;;;;;;;;;;4.90;68.30;;;-0.26;100.00;94133.69;4950765;29;19921;-49
2022/12/10 00:26:57;;;;;;;;;;;4.90;68.40;;;-0.25;100.00;94135.31;4950963;29;19999;-48
2022/12/10 00:29:22;;;;;;;;;;;4.90;68.40;;;-0.20;100.00;94139.03;4949876;29;20262;-49
2022/12/10 00:31:57;;;;;;;;;;;4.90;68.40;;;-0.25;100.00;94129.28;4952313;28;19910;-48
2022/12/10 00:34:23;;;;;;;;;;;4.90;68.40;;;-0.26;100.00;94131.06;4950408;29;19913;-48
2022/12/10 00:36:49;;;;;;;;;;;4.90;68.50;;;-0.24;100.00;94141.31;4949304;29;19922;-50
2022/12/10 00:39:23;;;;;;;;;;;4.90;68.40;;;-0.24;100.00;94138.72;4943902;28;19940;-53
2022/12/10 00:41:49;;;;;;;;;;;4.90;68.50;;;-0.26;100.00;94138.13;4943329;28;20288;-50
2022/12/10 00:44:21;;;;;;;;;;;4.80;68.50;;;-0.31;100.00;94127.59;4971389;28;19910;-48
2022/12/10 00:46:46;;;;;;;;;;;4.80;68.40;;;-0.32;100.00;94121.53;4960527;28;20296;-52
2022/12/10 00:49:13;;;;;;;;;;;4.80;68.50;;;-0.33;100.00;94124.41;4959216;28;19913;-52
2022/12/10 00:51:39;;;;;;;;;;;4.80;68.40;;;-0.32;100.00;94116.31;4952419;28;19913;-49
2022/12/10 00:54:05;;;;;;;;;;;4.80;68.50;;;-0.32;100.00;94118.13;4970146;28;19914;-48
2022/12/10 00:56:35;;;;;;;;;;;4.80;68.50;;;-0.33;100.00;94116.53;4958322;28;20017;-51
2022/12/10 00:59:06;;;;;;;;;;;4.70;68.40;;;-0.36;100.00;94114.41;4968296;28;19957;-48
2022/12/10 01:01:42;;;;;;;;;;;4.70;68.50;;;-0.36;100.00;94123.03;4957764;28;19914;-51
2022/12/10 01:04:15;;;;;;;;;;;4.80;68.60;;;-0.36;100.00;94137.94;4968644;28;19920;-49
2022/12/10 01:06:52;;;;;;;;;;;4.70;68.60;;;-0.34;100.00;94136.69;4969748;28;20384;-48
2022/12/10 01:09:25;;;;;;;;;;;4.70;68.70;;;-0.30;100.00;94143.03;4956839;28;19920;-51
2022/12/10 01:11:52;;;;;;;;;;;4.70;68.70;;;-0.32;100.00;94137.22;4972299;28;19920;-49
2022/12/10 01:14:26;;;;;;;;;;;4.70;68.70;;;-0.33;100.00;94132.25;4969869;28;19913;-52
2022/12/10 01:17:03;;;;;;;;;;;4.70;68.70;;;-0.36;100.00;94127.47;4965749;28;20396;-51
2022/12/10 01:19:32;;;;;;;;;;;4.70;68.70;;;-0.35;100.00;94131.66;4972712;28;19910;-48
2022/12/10 01:21:58;;;;;;;;;;;4.80;68.80;;;-0.35;100.00;94140.31;4970857;28;19941;-51
2022/12/10 01:24:27;;;;;;;;;;;4.70;68.70;;;-0.38;100.00;94146.00;4964149;28;20392;-52
2022/12/10 01:26:56;;;;;;;;;;;4.70;68.70;;;-0.39;100.00;94149.66;4969834;28;20377;-50
2022/12/10 01:29:26;;;;;;;;;;;4.70;68.70;;;-0.35;100.00;94152.59;4949443;28;19914;-50
2022/12/10 01:31:55;;;;;;;;;;;4.70;68.80;;;-0.34;100.00;94143.75;4972920;28;19910;-48
2022/12/10 01:34:22;;;;;;;;;;;4.70;68.80;;;-0.35;100.00;94148.16;4955580;28;20016;-48
2022/12/10 01:36:53;;;;;;;;;;;4.70;68.80;;;-0.37;100.00;94150.22;4955347;28;19910;-48
2022/12/10 01:39:22;;;;;;;;;;;4.70;68.80;;;-0.36;100.00;94146.59;4965745;28;19976;-51
2022/12/10 01:41:59;;;;;;;;;;;4.80;68.90;;;-0.34;100.00;94155.00;4955169;28;19932;-49
2022/12/10 01:44:25;;;;;;;;;;;4.80;68.90;;;-0.32;100.00;94146.91;4973420;28;20429;-48
2022/12/10 01:46:58;;;;;;;;;;;4.80;68.90;;;-0.31;100.00;94148.53;4961059;28;20004;-49
2022/12/10 01:49:38;;;;;;;;;;;4.80;68.90;;;-0.31;100.00;94156.38;4955023;28;19920;-49
2022/12/10 01:52:09;;;;;;;;;;;4.80;68.90;;;-0.28;100.00;94150.69;4943698;28;19917;-48
2022/12/10 01:54:43;;;;;;;;;;;4.80;68.90;;;-0.25;100.00;94145.78;4967587;28;19914;-50
2022/12/10 01:57:39;;;;;;;;;;;4.80;68.90;;;-0.28;100.00;94143.63;4948761;28;19920;-48
2022/12/10 02:00:06;;;;;;;;;;;4.80;68.90;;;-0.26;100.00;94151.22;4917978;28;20012;-52
2022/12/10 02:02:44;;;;;;;;;;;4.90;68.90;;;-0.20;100.00;94154.75;4953852;28;19913;-49
2022/12/10 02:05:28;;;;;;;;;;;4.90;69.00;;;-0.15;100.00;94167.94;4947241;28;19949;-48
2022/12/10 02:08:18;;;;;;;;;;;4.90;69.00;;;-0.13;100.00;94165.84;4967137;28;19942;-48
2022/12/10 02:11:18;;;;;;;;;;;4.90;69.00;;;-0.10;100.00;94168.03;4953537;28;19909;-49
2022/12/10 02:13:54;;;;;;;;;;;5.00;69.00;;;-0.08;100.00;94163.34;4917743;28;19953;-48
2022/12/10 02:16:40;;;;;;;;;;;5.00;69.00;;;-0.08;100.00;94158.13;4964676;28;19955;-55
2022/12/10 02:19:39;;;;;;;;;;;5.00;69.00;;;-0.07;100.00;94157.88;4956439;28;19961;-55
2022/12/10 02:22:09;;;;;;;;;;;5.00;69.00;;;-0.03;100.00;94160.84;4969088;28;19918;-55
2022/12/10 02:24:38;;;;;;;;;;;5.10;69.00;;;-0.02;100.00;94167.66;4973413;28;20009;-52
2022/12/10 02:27:35;;;;;;;;;;;5.10;69.00;;;0.01;100.00;94163.78;4927897;28;19917;-48
2022/12/10 02:30:14;;;;;;;;;;;5.10;68.90;;;0.02;100.00;94157.50;4954360;28;19922;-49
2022/12/10 02:32:48;;;;;;;;;;;5.10;68.90;;;0.04;100.00;94165.94;4955960;28;20407;-49
2022/12/10 02:35:30;;;;;;;;;;;5.10;68.80;;;0.03;100.00;94165.13;4947259;28;19914;-48
2022/12/10 02:38:10;;;;;;;;;;;5.20;68.90;;;0.03;100.00;94166.94;4952557;28;19926;-55
2022/12/10 02:40:42;;;;;;;;;;;5.20;68.90;;;0.06;100.00;94164.66;4947169;28;19929;-49
2022/12/10 02:43:14;;;;;;;;;;;5.20;68.90;;;0.07;100.00;94160.25;4956146;28;19910;-48
2022/12/10 02:45:44;;;;;;;;;;;5.30;68.90;;;0.07;100.00;94155.00;4971659;28;20336;-51
2022/12/10 02:48:20;;;;;;;;;;;5.30;68.90;;;0.02;100.00;94147.84;4954249;28;19917;-48
2022/12/10 02:50:48;;;;;;;;;;;5.30;68.70;;;0.01;100.00;94155.94;4971531;28;20331;-49
2022/12/10 02:53:14;;;;;;;;;;;5.30;68.60;;;0.00;100.00;94147.28;4971284;28;19910;-50
2022/12/10 02:56:30;;;;;;;;;;;5.20;68.60;;;-0.03;100.00;94140.69;4969481;28;20008;-50
2022/12/10 02:59:23;;;;;;;;;;;5.20;68.60;;;0.02;100.00;94147.03;4948043;28;19924;-49
2022/12/10 03:02:15;;;;;;;;;;;5.20;68.70;;;0.00;100.00;94139.44;4947948;28;19932;-52
2022/12/10 03:04:59;;;;;;;;;;;5.20;68.70;;;-0.01;100.00;94143.84;4960021;28;19921;-49
2022/12/10 03:08:02;;;;;;;;;;;5.10;68.70;;;0.00;100.00;94149.91;4967910;28;19960;-49
2022/12/10 03:10:52;;;;;;;;;;;5.10;68.80;;;-0.02;100.00;94149.34;4936493;28;19913;-49
2022/12/10 03:13:29;;;;;;;;;;;5.10;68.80;;;-0.03;100.00;94138.06;4967592;28;19910;-51
2022/12/10 03:15:58;;;;;;;;;;;5.10;69.60;;;-0.03;100.00;94150.38;4954049;28;19920;-49
2022/12/10 03:18:27;;;;;;;;;;;5.10;68.90;;;-0.04;100.00;94138.28;4935898;28;19924;-48
2022/12/10 03:20:59;;;;;;;;;;;5.10;68.90;;;-0.02;100.00;94141.47;4945312;28;20365;-50
2022/12/10 03:23:29;;;;;;;;;;;5.10;68.90;;;-0.02;100.00;94126.56;4970111;28;19914;-49
2022/12/10 03:25:55;;;;;;;;;;;5.10;68.90;;;-0.05;100.00;94128.84;4955087;28;20507;-49
2022/12/10 03:28:31;;;;;;;;;;;5.10;68.90;;;-0.07;100.00;94113.38;4969930;28;20028;-53
2022/12/10 03:30:58;;;;;;;;;;;5.10;68.90;;;-0.12;100.00;94118.53;4970590;28;19960;-49
2022/12/10 03:33:27;;;;;;;;;;;5.00;68.90;;;-0.16;100.00;94109.53;4954854;28;19910;-51
2022/12/10 03:35:53;;;;;;;;;;;5.00;68.90;;;-0.18;100.00;94119.47;4953406;28;20292;-51
2022/12/10 03:38:19;;;;;;;;;;;5.00;68.90;;;-0.18;100.00;94126.53;4954107;28;19923;-50
2022/12/10 03:40:45;;;;;;;;;;;5.00;69.30;;;-0.15;100.00;94121.63;4944641;28;19913;-51
2022/12/10 03:43:17;;;;;;;;;;;5.00;69.00;;;-0.19;100.00;94115.22;4972051;28;19920;-48
2022/12/10 03:45:46;;;;;;;;;;;4.90;69.00;;;-0.23;100.00;94129.81;4954080;28;20353;-49
2022/12/10 03:48:18;;;;;;;;;;;5.00;69.10;;;-0.17;100.00;94134.13;4970923;28;19914;-49
2022/12/10 03:50:43;;;;;;;;;;;4.90;69.00;;;-0.18;100.00;94132.53;4955347;28;20312;-48
2022/12/10 03:53:15;;;;;;;;;;;4.90;69.10;;;-0.22;100.00;94134.03;4953715;28;19960;-48
2022/12/10 03:55:47;;;;;;;;;;;4.90;69.10;;;-0.24;100.00;94139.50;4972058;28;19914;-49
2022/12/10 03:58:34;;;;;;;;;;;4.90;69.10;;;-0.25;100.00;94131.91;4953325;28;19914;-49
2022/12/10 04:01:00;;;;;;;;;;;4.90;69.10;;;-0.31;100.00;94122.34;4965254;28;19914;-49
2022/12/10 04:03:28;;;;;;;;;;;4.90;69.20;;;-0.30;100.00;94129.16;4969127;28;19936;-54
2022/12/10 04:05:53;;;;;;;;;;;4.80;69.10;;;-0.33;100.00;94135.66;4965493;28;20280;-48
2022/12/10 04:08:19;;;;;;;;;;;4.80;69.20;;;-0.31;100.00;94143.28;4969991;28;19913;-52
2022/12/10 04:10:45;;;;;;;;;;;4.80;69.20;;;-0.28;100.00;94133.16;4969646;28;19916;-50
2022/12/10 04:18:41;;;;;;;;;;;4.80;69.30;;;-0.31;100.00;94156.38;4967870;28;19963;-48
2022/12/10 04:26:53;;;;;;;;;;;4.80;69.40;;;-0.36;100.00;94130.88;4970850;28;20309;-51
2022/12/10 04:29:22;;;;;;;;;;;4.80;69.40;;;-0.45;100.00;94121.81;4935431;29;19937;-53
2022/12/10 04:31:52;;;;;;;;;;;4.80;69.40;;;-0.49;100.00;94125.91;4968741;28;19960;-49
2022/12/10 04:34:19;;;;;;;;;;;4.70;69.30;;;-0.48;100.00;94117.81;4952749;28;19933;-49
2022/12/10 04:39:13;;;;;;;;;;;4.70;69.40;;;-0.46;100.00;94130.69;4967980;28;19936;-50
2022/12/10 04:42:01;;;;;;;;;;;4.70;69.40;;;-0.45;100.00;94139.31;4964050;28;19952;-50
2022/12/10 04:44:29;;;;;;;;;;;4.70;69.50;;;-0.42;100.00;94147.50;4957173;28;19920;-49
2022/12/10 04:46:55;;;;;;;;;;;4.70;69.60;;;-0.41;100.00;94143.06;4976725;28;19909;-52
2022/12/10 04:49:21;;;;;;;;;;;4.70;69.60;;;-0.43;100.00;94143.31;4960067;28;19979;-51
2022/12/10 04:51:48;;;;;;;;;;;4.70;69.60;;;-0.41;100.00;94143.06;4957014;28;19914;-51
2022/12/10 04:54:14;;;;;;;;;;;4.70;69.60;;;-0.41;100.00;94140.44;4973672;28;19910;-51
2022/12/10 04:56:49;;;;;;;;;;;4.70;69.60;;;-0.43;100.00;94129.44;4973819;28;19914;-55
2022/12/10 04:59:16;;;;;;;;;;;4.70;69.60;;;-0.42;100.00;94126.56;4955967;28;19909;-49
2022/12/10 05:01:48;;;;;;;;;;;4.70;69.60;;;-0.42;100.00;94129.19;4939736;28;19913;-52
2022/12/10 05:04:19;;;;;;;;;;;4.70;70.40;;;-0.44;100.00;94141.69;4973259;28;19914;-54
2022/12/10 05:06:48;;;;;;;;;;;4.70;69.60;;;-0.42;100.00;94136.25;4973584;28;19917;-52
2022/12/10 05:09:17;;;;;;;;;;;4.70;69.60;;;-0.49;100.00;94141.63;4965343;28;20503;-51
2022/12/10 05:11:46;;;;;;;;;;;4.70;69.60;;;-0.54;100.00;94142.28;4942161;28;19957;-49
2022/12/10 05:14:14;;;;;;;;;;;4.70;69.60;;;-0.51;100.00;94146.28;4957212;28;20360;-55
2022/12/10 05:16:41;;;;;;;;;;;4.70;69.60;;;-0.53;100.00;94143.91;4967831;28;19963;-51
2022/12/10 05:19:11;;;;;;;;;;;4.70;69.60;;;-0.53;100.00;94137.88;4940076;28;19917;-54
2022/12/10 05:24:21;;;;;;;;;;;4.70;69.70;;;-0.45;100.00;94153.19;4974055;28;19926;-50
2022/12/10 05:26:51;;;;;;;;;;;4.60;69.70;;;-0.43;100.00;94152.97;4951810;28;19914;-55
2022/12/10 05:29:20;;;;;;;;;;;4.60;69.80;;;-0.44;100.00;94157.41;4964445;28;19972;-50
2022/12/10 05:31:52;;;;;;;;;;;4.60;69.80;;;-0.44;100.00;94160.00;4972475;28;19913;-54
2022/12/10 05:34:20;;;;;;;;;;;4.60;69.80;;;-0.48;100.00;94157.06;4981926;28;19914;-53
2022/12/10 05:36:46;;;;;;;;;;;4.60;69.80;;;-0.43;100.00;94164.25;4963314;28;19910;-56
2022/12/10 05:39:18;;;;;;;;;;;4.60;69.80;;;-0.41;100.00;94153.53;4956122;28;19922;-55
2022/12/10 05:41:46;;;;;;;;;;;4.70;69.90;;;-0.42;100.00;94151.94;4972098;28;19949;-56
2022/12/10 05:44:13;;;;;;;;;;;4.70;69.90;;;-0.42;100.00;94162.41;4973445;28;20265;-54
2022/12/10 05:46:42;;;;;;;;;;;4.70;69.80;;;-0.42;100.00;94162.41;4965134;28;19914;-51
2022/12/10 05:49:08;;;;;;;;;;;4.70;69.80;;;-0.41;100.00;94169.22;4966625;28;20396;-52
2022/12/10 05:51:38;;;;;;;;;;;4.70;69.80;;;-0.40;100.00;94171.63;4956085;28;19997;-53
2022/12/10 05:54:06;;;;;;;;;;;4.70;69.80;;;-0.41;100.00;94177.88;4955088;28;19920;-51
2022/12/10 05:56:33;;;;;;;;;;;4.70;69.80;;;-0.43;100.00;94174.69;4955930;28;20008;-55
2022/12/10 05:59:01;;;;;;;;;;;4.70;69.80;;;-0.42;100.00;94171.06;4955633;28;19913;-52
2022/12/10 06:01:32;;;;;;;;;;;4.70;69.80;;;-0.37;100.00;94181.63;4914407;28;19917;-55
2022/12/10 06:04:04;;;;;;;;;;;4.70;69.80;;;-0.34;100.00;94175.94;4966827;28;19965;-51
2022/12/10 06:06:35;;;;;;;;;;;4.70;69.90;;;-0.32;100.00;94175.69;4939298;28;19917;-51
2022/12/10 06:09:13;;;;;;;;;;;4.70;69.90;;;-0.31;100.00;94177.31;4967451;28;19914;-52
2022/12/10 06:11:40;;;;;;;;;;;4.70;69.80;;;-0.27;100.00;94178.44;4947790;28;19920;-52
2022/12/10 06:14:05;;;;;;;;;;;4.80;69.90;;;-0.24;100.00;94183.19;4951172;28;19916;-51
2022/12/10 06:16:31;;;;;;;;;;;4.80;69.90;;;-0.25;100.00;94181.63;4971411;28;19929;-52
2022/12/10 06:18:58;;;;;;;;;;;4.80;69.90;;;-0.24;100.00;94178.75;4972289;28;19961;-55
2022/12/10 06:21:27;;;;;;;;;;;4.80;69.90;;;-0.21;100.00;94163.63;4933092;28;19917;-51
2022/12/10 06:23:53;;;;;;;;;;;4.80;69.90;;;-0.23;100.00;94171.69;4951300;28;19910;-53
2022/12/10 06:26:24;;;;;;;;;;;4.80;69.90;;;-0.22;100.00;94180.34;4910697;28;21070;-52
2022/12/10 06:28:50;;;;;;;;;;;4.80;69.90;;;-0.18;100.00;94192.75;4985516;28;19948;-53
2022/12/10 06:31:17;;;;;;;;;;;4.80;69.90;;;-0.16;100.00;94195.91;4958468;28;19960;-51
2022/12/10 06:33:51;;;;;;;;;;;4.90;70.00;;;-0.13;100.00;94194.66;4987783;28;20470;-53
2022/12/10 06:36:18;;;;;;;;;;;4.90;70.00;;;-0.12;100.00;94202.28;4966444;28;20008;-53
2022/12/10 06:38:44;;;;;;;;;;;5.00;70.70;;;-0.16;100.00;94200.34;5006479;28;19917;-53
2022/12/10 06:41:16;;;;;;;;;;;5.00;69.90;;;-0.18;100.00;94197.97;4992411;28;19915;-55
2022/12/10 06:43:42;;;;;;;;;;;5.00;69.80;;;-0.18;100.00;94197.19;4986338;28;19913;-54
2022/12/10 06:46:13;;;;;;;;;;;5.00;69.70;;;-0.16;100.00;94197.72;4982941;28;19919;-54
2022/12/10 06:48:40;;;;;;;;;;;5.00;69.70;;;-0.17;100.00;94198.78;4983317;28;20378;-55
2022/12/10 06:51:12;;;;;;;;;;;5.00;69.60;;;-0.21;100.00;94195.81;5006626;28;20398;-54
2022/12/10 06:53:41;;;;;;;;;;;5.00;69.60;;;-0.19;100.00;94200.81;4980068;28;20006;-54
2022/12/10 06:56:12;;;;;;;;;;;5.00;69.60;;;-0.21;100.00;94208.13;5001734;28;19913;-50
2022/12/10 06:58:40;;;;;;;;;;;5.00;69.50;;;-0.20;100.00;94212.31;4980603;28;19913;-52
2022/12/10 07:01:13;;;;;;;;;;;5.00;69.50;;;-0.23;100.00;94218.81;4998826;28;19916;-55
2022/12/10 07:03:43;;;;;;;;;;;5.00;69.50;;;-0.21;100.00;94215.97;5009462;28;19909;-51
2022/12/10 07:06:11;;;;;;;;;;;4.90;69.50;;;-0.20;100.00;94218.34;5003843;28;19917;-52
2022/12/10 07:08:40;;;;;;;;;;;4.90;69.50;;;-0.18;100.00;94216.31;4992211;28;20009;-52
2022/12/10 07:11:12;;;;;;;;;;;4.90;69.50;;;-0.20;100.00;94225.41;5006948;28;19913;-54
2022/12/10 07:13:39;;;;;;;;;;;4.90;69.60;;;-0.20;100.00;94228.03;4997731;28;19909;-53
2022/12/10 07:16:29;;;;;;;;;;;5.00;69.60;;;-0.19;100.00;94225.16;5002468;28;19909;-55
2022/12/10 07:18:59;;;;;;;;;;;5.00;69.60;;;-0.17;100.00;94223.13;4976499;28;20367;-53
2022/12/10 07:21:25;;;;;;;;;;;5.00;69.60;;;-0.17;100.00;94222.31;4968903;28;20379;-53
2022/12/10 07:23:55;;;;;;;;;;;5.00;69.60;;;-0.16;100.00;94218.69;5001341;28;19959;-53
2022/12/10 07:26:22;;;;;;;;;;;5.00;69.60;;;-0.17;100.00;94227.56;4972795;28;19945;-53
2022/12/10 07:28:48;;;;;;;;;;;5.00;69.50;;;-0.16;100.00;94216.84;4966125;28;19964;-54
2022/12/10 07:31:16;;;;;;;;;;;5.00;69.50;;;-0.15;100.00;94221.06;4975624;28;19913;-57
2022/12/10 07:33:42;;;;;;;;;;;5.10;69.50;;;-0.10;100.00;94223.00;4985479;28;19913;-54
2022/12/10 07:36:11;;;;;;;;;;;5.10;69.40;;;-0.08;100.00;94234.81;5007261;28;20295;-52
2022/12/10 07:38:38;;;;;;;;;;;5.10;69.40;;;-0.07;100.00;94231.16;4979717;28;19955;-54
2022/12/10 07:41:08;;;;;;;;;;;5.20;70.20;;;-0.11;100.00;94230.06;4976328;28;19964;-55
2022/12/10 07:43:39;;;;;;;;;;;5.20;69.40;;;-0.06;100.00;94226.75;4976413;28;19925;-53
2022/12/10 07:46:14;;;;;;;;;;;5.20;69.30;;;-0.05;100.00;94230.97;4971185;28;20004;-57
2022/12/10 07:48:43;;;;;;;;;;;5.30;69.20;;;0.01;100.00;94234.47;4978108;28;20384;-57
2022/12/10 07:51:09;;;;;;;;;;;5.30;69.10;;;0.04;100.00;94234.81;4969389;28;19910;-55
2022/12/10 07:53:36;;;;;;;;;;;5.30;69.10;;;0.10;100.00;94235.72;4974365;28;19916;-56
2022/12/10 07:56:03;;;;;;;;;;;5.40;69.10;;;0.13;100.00;94237.88;4977158;28;19910;-53
2022/12/10 07:58:32;;;;;;;;;;;5.40;69.10;;;-0.06;100.00;94238.03;4985831;28;19924;-58
2022/12/10 08:00:58;;;;;;;;;;;5.50;69.00;;;0.02;100.00;94244.72;4980757;28;19937;-58
2022/12/10 08:03:24;;;;;;;;;;;5.60;68.90;;;0.07;100.00;94247.44;4982030;28;19917;-54
2022/12/10 08:06:11;;;;;;;;;;;5.60;68.80;;;0.17;100.00;94246.84;4987976;28;20059;-54
2022/12/10 08:08:43;;;;;;;;;;;5.70;68.70;;;0.19;100.00;94256.06;4966014;28;20356;-53
2022/12/10 08:11:12;;;;;;;;;;;5.70;68.60;;;0.18;100.00;94258.91;4979856;28;19941;-56
2022/12/10 08:13:39;;;;;;;;;;;5.80;68.50;;;0.26;100.00;94268.22;4979381;28;19914;-51
2022/12/10 08:16:18;;;;;;;;;;;5.80;68.40;;;0.32;100.00;94268.09;4966681;28;19974;-53
2022/12/10 08:18:45;;;;;;;;;;;5.90;68.40;;;0.37;100.00;94278.66;4989689;28;20349;-57
2022/12/10 08:21:18;;;;;;;;;;;5.90;68.30;;;0.37;100.00;94285.72;4953363;28;19995;-54
2022/12/10 08:23:45;;;;;;;;;;;6.10;68.30;;;0.40;100.00;94278.19;4982298;28;19909;-54
2022/12/10 08:26:16;;;;;;;;;;;6.10;68.10;;;0.35;100.00;94280.72;4975413;28;19936;-58
2022/12/10 08:28:47;;;;;;;;;;;6.20;68.00;;;0.44;100.00;94283.78;4959194;28;19917;-58
2022/12/10 08:31:15;;;;;;;;;;;6.30;67.90;;;0.48;100.00;94284.91;4990011;28;19910;-57
2022/12/10 08:33:46;;;;;;;;;;;6.30;67.80;;;0.48;100.00;94284.91;4992375;28;19910;-58
2022/12/10 08:36:17;;;;;;;;;;;6.40;67.60;;;0.51;100.00;94287.06;4972439;28;26709;-58
2022/12/10 08:38:46;;;;;;;;;;;6.50;67.60;;;0.52;100.00;94295.72;4991959;28;19924;-54
2022/12/10 08:41:20;;;;;;;;;;;6.50;67.40;;;0.55;100.00;94297.88;4992583;28;19918;-56
2022/12/10 08:43:51;;;;;;;;;;;6.60;67.30;;;0.61;100.00;94302.19;4992486;28;20339;-57
2022/12/10 08:46:17;;;;;;;;;;;6.60;67.20;;;0.56;100.00;94305.47;4991973;28;20005;-54
2022/12/10 08:48:43;;;;;;;;;;;6.70;67.10;;;0.60;100.00;94305.84;4992401;28;20361;-57
2022/12/10 08:51:14;;;;;;;;;;;6.70;67.10;;;0.64;100.00;94304.34;4976560;28;20334;-56
2022/12/10 08:53:49;;;;;;;;;;;6.70;67.00;;;0.66;100.00;94316.19;4971534;28;20012;-54
2022/12/10 08:56:18;;;;;;;;;;;6.80;66.90;;;0.78;100.00;94304.84;4992544;28;19910;-58
2022/12/10 08:58:43;;;;;;;;;;;6.90;66.80;;;0.95;100.00;94308.31;4991585;28;19909;-56
2022/12/10 09:01:13;;;;;;;;;;;7.10;66.70;;;1.07;100.00;94310.88;4990639;28;19932;-56
2022/12/10 09:03:40;;;;;;;;;;;7.30;66.60;;;1.20;100.00;94309.78;4985863;28;20056;-58
2022/12/10 09:06:10;;;;;;;;;;;7.50;66.40;;;1.30;99.62;94309.94;4972771;28;20386;-52
2022/12/10 09:08:38;;;;;;;;;;;7.70;66.10;;;1.41;99.37;94319.59;4996785;28;20047;-55
2022/12/10 09:11:07;;;;;;;;;;;7.90;65.80;;;1.51;97.95;94329.44;4965712;28;20300;-52
2022/12/10 09:13:33;;;;;;;;;;;8.10;65.60;;;1.49;97.04;94327.06;4978657;28;19910;-56
2022/12/10 09:15:58;;;;;;;;;;;8.20;65.40;;;1.60;97.47;94330.66;4991874;28;19920;-54
2022/12/10 09:18:24;;;;;;;;;;;8.20;65.10;;;1.56;96.60;94338.19;4979219;28;19916;-57
2022/12/10 09:20:53;;;;;;;;;;;8.20;65.00;;;1.47;96.13;94341.44;4992015;28;20438;-57
2022/12/10 09:23:23;;;;;;;;;;;8.10;64.90;;;1.37;95.93;94339.44;4990511;28;20395;-57
2022/12/10 09:25:57;;;;;;;;;;;8.00;64.90;;;1.32;96.43;94342.78;4991501;28;19909;-58
2022/12/10 09:28:23;;;;;;;;;;;7.90;64.90;;;1.33;96.63;94346.19;4991410;28;19913;-56
2022/12/10 09:31:01;;;;;;;;;;;7.90;64.90;;;1.26;96.54;94354.22;4992782;28;19979;-54
2022/12/10 09:33:30;;;;;;;;;;;7.70;65.00;;;1.19;96.97;94353.56;4959013;28;19914;-57
2022/12/10 09:35:59;;;;;;;;;;;7.70;65.10;;;1.14;96.91;94364.78;4995449;28;20015;-54
2022/12/10 09:38:25;;;;;;;;;;;7.60;65.10;;;1.08;97.41;94364.91;5005613;28;19972;-56
2022/12/10 09:41:10;;;;;;;;;;;7.50;65.20;;;1.03;97.04;94365.59;5005946;28;19962;-54
2022/12/10 09:44:03;;;;;;;;;;;7.40;65.20;;;0.98;97.46;94365.53;4974865;28;19909;-56
2022/12/10 09:46:44;;;;;;;;;;;7.30;65.20;;;0.99;97.17;94372.34;5010218;28;19939;-55
2022/12/10 09:49:48;;;;;;;;;;;7.30;65.30;;;0.97;97.66;94369.16;5012241;28;19913;-56
2022/12/10 09:52:26;;;;;;;;;;;7.40;65.20;;;1.12;97.54;94369.44;4993801;28;19917;-53
2022/12/10 09:55:36;;;;;;;;;;;7.50;65.10;;;1.18;96.53;94359.84;4982113;28;19909;-53
2022/12/10 09:58:06;;;;;;;;;;;7.70;65.00;;;1.26;96.75;94356.06;4999240;28;19956;-50
2022/12/10 10:01:00;;;;;;;;;;;7.80;64.90;;;1.34;96.29;94366.16;4992953;28;19921;-55
2022/12/10 10:03:26;;;;;;;;;;;7.90;64.70;;;1.35;95.40;94360.69;4985671;28;19956;-55
2022/12/10 10:05:56;;;;;;;;;;;8.00;64.60;;;1.42;95.60;94357.91;4982945;28;20013;-55
2022/12/10 10:08:38;;;;;;;;;;;8.00;64.40;;;1.49;95.35;94365.63;5010583;28;20325;-56
2022/12/10 10:11:17;;;;;;;;;;;8.10;64.30;;;1.65;94.62;94364.84;4982727;28;19913;-58
2022/12/10 10:14:21;;;;;;;;;;;8.30;64.30;;;1.82;94.08;94363.03;5010431;28;19909;-58
2022/12/10 10:17:00;;;;;;;;;;;8.40;64.00;;;1.87;93.61;94366.75;5006978;28;19917;-56
2022/12/10 10:19:34;;;;;;;;;;;8.60;63.90;;;1.97;93.69;94367.69;5012042;28;20047;-54
2022/12/10 10:22:00;;;;;;;;;;;8.70;63.80;;;1.97;92.84;94377.41;5010393;28;19955;-58
2022/12/10 10:24:41;;;;;;;;;;;8.80;63.60;;;2.04;92.51;94383.31;4966734;28;19945;-55
2022/12/10 10:27:29;;;;;;;;;;;8.90;63.50;;;2.00;90.71;94382.19;4993445;28;19919;-58
2022/12/10 10:30:00;;;;;;;;;;;8.90;63.40;;;2.03;90.96;94377.22;4980885;28;19917;-55
2022/12/10 10:32:48;;;;;;;;;;;8.90;63.30;;;2.00;90.40;94382.19;4994485;28;19913;-56
2022/12/10 10:35:46;;;;;;;;;;;8.90;63.20;;;2.02;91.40;94373.03;4993050;28;20012;-57
2022/12/10 10:38:27;;;;;;;;;;;8.90;63.10;;;1.88;90.78;94379.66;4977313;28;20334;-56
2022/12/10 10:41:03;;;;;;;;;;;8.80;63.00;;;1.78;91.17;94385.53;5001117;23;20456;-49
2022/12/10 10:43:41;;;;;;;;;;;8.70;62.90;;;1.66;91.51;94390.06;4991336;28;20410;-49
2022/12/10 10:46:22;;;;;;;;;;;8.70;62.90;;;1.55;92.48;94396.97;4990420;28;19909;-50
2022/12/10 10:48:50;;;;;;;;;;;8.50;62.90;;;1.40;93.47;94394.06;4984098;28;19913;-48
2022/12/10 10:51:24;;;;;;;;;;;8.30;62.90;;;1.13;94.01;94389.41;4987180;28;19909;-48
2022/12/10 10:53:56;;;;;;;;;;;8.10;63.00;;;0.91;95.45;94391.09;4957159;28;19910;-48
2022/12/10 10:56:31;;;;;;;;;;;7.80;63.10;;;0.91;95.93;94385.84;4973661;28;19966;-49
2022/12/10 10:59:31;;;;;;;;;;;7.60;63.20;;;0.84;96.15;94382.56;4970531;28;20004;-51
2022/12/10 11:02:43;;;;;;;;;;;7.50;63.50;;;0.89;96.61;94385.28;4936428;28;20526;-48
2022/12/10 11:05:33;;;;;;;;;;;7.40;63.80;;;0.88;96.62;94389.72;4966232;28;20387;-48
2022/12/10 11:08:20;;;;;;;;;;;7.30;64.00;;;0.83;97.22;94388.84;4963610;28;19952;-48
2022/12/10 11:11:02;;;;;;;;;;;7.20;64.20;;;0.71;97.07;94393.31;4972480;28;20001;-51
2022/12/10 11:13:35;;;;;;;;;;;7.20;64.20;;;0.72;97.98;94385.19;4959185;28;19917;-51
2022/12/10 11:16:16;;;;;;;;;;;7.20;64.20;;;0.81;97.44;94391.69;4990833;28;20004;-48
2022/12/10 11:19:23;;;;;;;;;;;7.20;64.20;;;0.96;97.18;94395.63;4956586;28;19944;-50
2022/12/10 11:21:49;;;;;;;;;;;7.40;64.20;;;1.03;95.72;94401.53;4983050;28;19918;-49
2022/12/10 11:24:19;;;;;;;;;;;7.50;64.20;;;1.07;94.74;94400.06;4972588;28;19910;-49
2022/12/10 11:27:19;;;;;;;;;;;7.60;64.10;;;1.21;94.87;94401.34;4989470;28;19964;-52
2022/12/10 11:30:25;;;;;;;;;;;7.70;64.00;;;1.20;93.72;94393.72;4960371;28;19913;-50
2022/12/10 11:33:38;;;;;;;;;;;7.80;63.70;;;1.18;92.63;94399.19;4990577;28;19916;-53
2022/12/10 11:36:48;;;;;;;;;;;7.90;63.40;;;1.22;91.80;94410.81;4975290;28;19913;-50
2022/12/10 11:39:56;;;;;;;;;;;7.80;63.00;;;1.16;91.44;94406.53;4993558;28;19917;-52
2022/12/10 11:43:07;;;;;;;;;;;7.80;63.00;;;1.10;91.46;94418.75;4988047;28;20299;-49
2022/12/10 11:46:19;;;;;;;;;;;7.60;63.00;;;0.96;91.73;94411.38;4992166;28;20723;-53
2022/12/10 11:49:10;;;;;;;;;;;7.50;63.10;;;1.06;92.05;94414.19;4985581;28;19913;-51
2022/12/10 11:52:04;;;;;;;;;;;7.40;63.30;;;0.97;92.08;94416.38;5008609;28;19909;-54
2022/12/10 11:56:01;;;;;;;;;;;7.20;63.50;;;0.77;92.90;94423.84;5004790;28;20111;-54
2022/12/10 11:59:03;;;;;;;;;;;7.10;63.50;;;0.64;93.38;94428.31;4891777;29;20357;-51
2022/12/10 12:02:00;;;;;;;;;;;6.90;63.50;;;0.59;93.61;94427.41;4888003;29;19977;-49
2022/12/10 12:04:51;;;;;;;;;;;6.70;63.50;;;0.55;92.96;94432.31;5004495;28;20375;-50
2022/12/10 12:07:28;;;;;;;;;;;6.60;63.70;;;0.53;93.09;94436.19;5005103;28;20008;-51
2022/12/10 12:10:50;;;;;;;;;;;6.50;63.90;;;0.53;93.99;94447.44;4995356;28;19913;-50
2022/12/10 12:13:20;;;;;;;;;;;6.40;64.10;;;0.46;93.93;94444.16;5000001;28;19910;-51